sensor_id;sensor_type;location;lat;lon;timestamp;P1;durP1;ratioP1;P2;durP2;ratioP2
22916;SDS011;11624;53.250;7.456;2023-05-07T00:01:03;32.63;;;19.63;;
22916;SDS011;11624;53.250;7.456;2023-05-07T00:03:32;34.03;;;19.95;;
22916;SDS011;11624;53.250;7.456;2023-05-07T00:06:01;32.97;;;19.70;;
22916;SDS011;11624;53.250;7.456;2023-05-07T00:08:29;36.28;;;20.50;;
22916;SDS011;11624;53.250;7.456;2023-05-07T00:10:57;32.97;;;19.65;;
22916;SDS011;11624;53.250;7.456;2023-05-07T00:13:25;37.65;;;20.75;;
22916;SDS011;11624;53.250;7.456;2023-05-07T00:15:53;41.53;;;20.60;;
22916;SDS011;11624;53.250;7.456;2023-05-07T00:18:23;35.92;;;20.75;;
22916;SDS011;11624;53.250;7.456;2023-05-07T00:20:51;34.22;;;20.67;;
22916;SDS011;11624;53.250;7.456;2023-05-07T00:23:19;38.25;;;21.05;;
22916;SDS011;11624;53.250;7.456;2023-05-07T00:25:47;35.67;;;20.85;;
22916;SDS011;11624;53.250;7.456;2023-05-07T00:28:15;35.17;;;20.17;;
22916;SDS011;11624;53.250;7.456;2023-05-07T00:30:44;36.47;;;22.02;;
22916;SDS011;11624;53.250;7.456;2023-05-07T00:33:12;36.90;;;22.42;;
22916;SDS011;11624;53.250;7.456;2023-05-07T00:35:41;35.78;;;20.55;;
22916;SDS011;11624;53.250;7.456;2023-05-07T00:38:09;33.70;;;20.15;;
22916;SDS011;11624;53.250;7.456;2023-05-07T00:40:37;36.60;;;20.92;;
22916;SDS011;11624;53.250;7.456;2023-05-07T00:43:05;36.58;;;20.90;;
22916;SDS011;11624;53.250;7.456;2023-05-07T00:45:35;35.70;;;21.33;;
22916;SDS011;11624;53.250;7.456;2023-05-07T00:48:03;39.83;;;20.40;;
22916;SDS011;11624;53.250;7.456;2023-05-07T00:50:32;33.13;;;19.80;;
22916;SDS011;11624;53.250;7.456;2023-05-07T00:53:02;35.20;;;19.98;;
22916;SDS011;11624;53.250;7.456;2023-05-07T00:55:30;36.22;;;20.23;;
22916;SDS011;11624;53.250;7.456;2023-05-07T00:57:58;37.10;;;20.60;;
22916;SDS011;11624;53.250;7.456;2023-05-07T01:00:26;36.50;;;21.38;;
22916;SDS011;11624;53.250;7.456;2023-05-07T01:02:55;34.72;;;20.35;;
22916;SDS011;11624;53.250;7.456;2023-05-07T01:05:24;35.72;;;20.75;;
22916;SDS011;11624;53.250;7.456;2023-05-07T01:07:54;34.58;;;20.08;;
22916;SDS011;11624;53.250;7.456;2023-05-07T01:10:25;41.35;;;22.15;;
22916;SDS011;11624;53.250;7.456;2023-05-07T01:12:53;33.97;;;19.98;;
22916;SDS011;11624;53.250;7.456;2023-05-07T01:15:22;33.75;;;20.50;;
22916;SDS011;11624;53.250;7.456;2023-05-07T01:17:50;37.97;;;21.52;;
22916;SDS011;11624;53.250;7.456;2023-05-07T01:20:26;37.95;;;21.05;;
22916;SDS011;11624;53.250;7.456;2023-05-07T01:22:58;36.67;;;20.98;;
22916;SDS011;11624;53.250;7.456;2023-05-07T01:25:28;36.60;;;21.02;;
22916;SDS011;11624;53.250;7.456;2023-05-07T01:27:59;40.40;;;21.85;;
22916;SDS011;11624;53.250;7.456;2023-05-07T01:30:31;40.22;;;21.85;;
22916;SDS011;11624;53.250;7.456;2023-05-07T01:33:04;38.55;;;21.92;;
22916;SDS011;11624;53.250;7.456;2023-05-07T01:35:37;39.20;;;22.35;;
22916;SDS011;11624;53.250;7.456;2023-05-07T01:38:09;39.63;;;22.05;;
22916;SDS011;11624;53.250;7.456;2023-05-07T01:40:37;37.15;;;21.23;;
22916;SDS011;11624;53.250;7.456;2023-05-07T01:43:06;39.33;;;20.88;;
22916;SDS011;11624;53.250;7.456;2023-05-07T01:45:35;35.47;;;20.88;;
22916;SDS011;11624;53.250;7.456;2023-05-07T01:48:04;37.45;;;21.35;;
22916;SDS011;11624;53.250;7.456;2023-05-07T01:50:33;38.75;;;21.90;;
22916;SDS011;11624;53.250;7.456;2023-05-07T01:53:02;40.22;;;22.30;;
22916;SDS011;11624;53.250;7.456;2023-05-07T01:55:32;38.65;;;22.27;;
22916;SDS011;11624;53.250;7.456;2023-05-07T01:58:00;39.35;;;23.73;;
22916;SDS011;11624;53.250;7.456;2023-05-07T02:00:28;41.78;;;22.33;;
22916;SDS011;11624;53.250;7.456;2023-05-07T02:02:57;43.45;;;23.58;;
22916;SDS011;11624;53.250;7.456;2023-05-07T02:05:34;38.10;;;22.42;;
22916;SDS011;11624;53.250;7.456;2023-05-07T02:08:09;42.40;;;23.23;;
22916;SDS011;11624;53.250;7.456;2023-05-07T02:10:38;38.45;;;22.52;;
22916;SDS011;11624;53.250;7.456;2023-05-07T02:13:06;39.38;;;22.05;;
22916;SDS011;11624;53.250;7.456;2023-05-07T02:15:35;43.13;;;23.85;;
22916;SDS011;11624;53.250;7.456;2023-05-07T02:18:04;41.90;;;23.45;;
22916;SDS011;11624;53.250;7.456;2023-05-07T02:20:33;40.22;;;23.17;;
22916;SDS011;11624;53.250;7.456;2023-05-07T02:23:01;41.40;;;22.45;;
22916;SDS011;11624;53.250;7.456;2023-05-07T02:25:30;37.70;;;20.40;;
22916;SDS011;11624;53.250;7.456;2023-05-07T02:27:59;44.42;;;22.17;;
22916;SDS011;11624;53.250;7.456;2023-05-07T02:30:48;36.60;;;21.20;;
22916;SDS011;11624;53.250;7.456;2023-05-07T02:33:17;35.42;;;20.90;;
22916;SDS011;11624;53.250;7.456;2023-05-07T02:35:46;34.47;;;21.00;;
22916;SDS011;11624;53.250;7.456;2023-05-07T02:38:15;35.90;;;20.75;;
22916;SDS011;11624;53.250;7.456;2023-05-07T02:40:43;35.25;;;21.23;;
22916;SDS011;11624;53.250;7.456;2023-05-07T02:43:12;33.25;;;20.17;;
22916;SDS011;11624;53.250;7.456;2023-05-07T02:45:44;36.50;;;21.27;;
22916;SDS011;11624;53.250;7.456;2023-05-07T02:48:13;36.65;;;20.20;;
22916;SDS011;11624;53.250;7.456;2023-05-07T02:50:41;34.03;;;19.40;;
22916;SDS011;11624;53.250;7.456;2023-05-07T02:53:12;33.65;;;19.23;;
22916;SDS011;11624;53.250;7.456;2023-05-07T02:55:40;31.42;;;19.60;;
22916;SDS011;11624;53.250;7.456;2023-05-07T02:58:08;31.00;;;19.67;;
22916;SDS011;11624;53.250;7.456;2023-05-07T03:00:39;34.83;;;20.90;;
22916;SDS011;11624;53.250;7.456;2023-05-07T03:03:28;35.92;;;20.45;;
22916;SDS011;11624;53.250;7.456;2023-05-07T03:05:56;36.60;;;21.73;;
22916;SDS011;11624;53.250;7.456;2023-05-07T03:08:24;35.88;;;20.70;;
22916;SDS011;11624;53.250;7.456;2023-05-07T03:10:52;34.95;;;21.48;;
22916;SDS011;11624;53.250;7.456;2023-05-07T03:13:20;33.22;;;19.92;;
22916;SDS011;11624;53.250;7.456;2023-05-07T03:15:50;34.47;;;20.73;;
22916;SDS011;11624;53.250;7.456;2023-05-07T03:18:18;37.63;;;20.85;;
22916;SDS011;11624;53.250;7.456;2023-05-07T03:20:47;34.03;;;20.65;;
22916;SDS011;11624;53.250;7.456;2023-05-07T03:23:17;35.05;;;20.05;;
22916;SDS011;11624;53.250;7.456;2023-05-07T03:25:46;33.10;;;20.45;;
22916;SDS011;11624;53.250;7.456;2023-05-07T03:28:14;35.97;;;21.58;;
22916;SDS011;11624;53.250;7.456;2023-05-07T03:30:49;31.55;;;19.65;;
22916;SDS011;11624;53.250;7.456;2023-05-07T03:33:18;35.50;;;20.65;;
22916;SDS011;11624;53.250;7.456;2023-05-07T03:35:47;36.45;;;20.40;;
22916;SDS011;11624;53.250;7.456;2023-05-07T03:38:19;32.45;;;20.77;;
22916;SDS011;11624;53.250;7.456;2023-05-07T03:40:48;35.40;;;20.98;;
22916;SDS011;11624;53.250;7.456;2023-05-07T03:43:16;36.33;;;21.58;;
22916;SDS011;11624;53.250;7.456;2023-05-07T03:45:50;38.30;;;21.63;;
22916;SDS011;11624;53.250;7.456;2023-05-07T03:48:22;39.42;;;22.23;;
22916;SDS011;11624;53.250;7.456;2023-05-07T03:50:53;39.75;;;23.30;;
22916;SDS011;11624;53.250;7.456;2023-05-07T03:53:22;39.88;;;24.65;;
22916;SDS011;11624;53.250;7.456;2023-05-07T03:55:50;37.45;;;22.88;;
22916;SDS011;11624;53.250;7.456;2023-05-07T03:58:19;37.92;;;22.58;;
22916;SDS011;11624;53.250;7.456;2023-05-07T04:00:47;33.97;;;21.60;;
22916;SDS011;11624;53.250;7.456;2023-05-07T04:03:27;36.28;;;23.80;;
22916;SDS011;11624;53.250;7.456;2023-05-07T04:05:58;36.00;;;22.42;;
22916;SDS011;11624;53.250;7.456;2023-05-07T04:08:26;34.35;;;21.27;;
22916;SDS011;11624;53.250;7.456;2023-05-07T04:10:54;33.60;;;20.20;;
22916;SDS011;11624;53.250;7.456;2023-05-07T04:13:25;33.83;;;19.42;;
22916;SDS011;11624;53.250;7.456;2023-05-07T04:15:54;31.35;;;19.83;;
22916;SDS011;11624;53.250;7.456;2023-05-07T04:18:24;29.30;;;18.35;;
22916;SDS011;11624;53.250;7.456;2023-05-07T04:20:54;31.02;;;17.65;;
22916;SDS011;11624;53.250;7.456;2023-05-07T04:23:22;29.15;;;17.92;;
22916;SDS011;11624;53.250;7.456;2023-05-07T04:25:51;29.45;;;17.45;;
22916;SDS011;11624;53.250;7.456;2023-05-07T04:28:30;28.60;;;16.38;;
22916;SDS011;11624;53.250;7.456;2023-05-07T04:30:58;29.40;;;16.83;;
22916;SDS011;11624;53.250;7.456;2023-05-07T04:33:26;28.45;;;17.40;;
22916;SDS011;11624;53.250;7.456;2023-05-07T04:35:57;29.77;;;17.58;;
22916;SDS011;11624;53.250;7.456;2023-05-07T04:38:30;31.40;;;20.58;;
22916;SDS011;11624;53.250;7.456;2023-05-07T04:41:02;28.23;;;17.52;;
22916;SDS011;11624;53.250;7.456;2023-05-07T04:43:34;30.58;;;17.77;;
22916;SDS011;11624;53.250;7.456;2023-05-07T04:46:02;28.60;;;17.23;;
22916;SDS011;11624;53.250;7.456;2023-05-07T04:48:31;28.05;;;17.30;;
22916;SDS011;11624;53.250;7.456;2023-05-07T04:51:01;29.02;;;17.25;;
22916;SDS011;11624;53.250;7.456;2023-05-07T04:53:30;29.73;;;17.42;;
22916;SDS011;11624;53.250;7.456;2023-05-07T04:55:58;30.92;;;17.25;;
22916;SDS011;11624;53.250;7.456;2023-05-07T04:58:32;32.38;;;17.55;;
22916;SDS011;11624;53.250;7.456;2023-05-07T05:01:00;32.95;;;18.40;;
22916;SDS011;11624;53.250;7.456;2023-05-07T05:03:28;31.90;;;18.48;;
22916;SDS011;11624;53.250;7.456;2023-05-07T05:05:58;29.63;;;17.42;;
22916;SDS011;11624;53.250;7.456;2023-05-07T05:08:32;31.30;;;18.58;;
22916;SDS011;11624;53.250;7.456;2023-05-07T05:11:02;31.38;;;17.52;;
22916;SDS011;11624;53.250;7.456;2023-05-07T05:13:32;29.23;;;17.27;;
22916;SDS011;11624;53.250;7.456;2023-05-07T05:16:07;29.20;;;17.10;;
22916;SDS011;11624;53.250;7.456;2023-05-07T05:18:36;32.28;;;18.27;;
22916;SDS011;11624;53.250;7.456;2023-05-07T05:21:04;35.08;;;18.63;;
22916;SDS011;11624;53.250;7.456;2023-05-07T05:23:34;31.38;;;17.80;;
22916;SDS011;11624;53.250;7.456;2023-05-07T05:26:02;31.63;;;17.65;;
22916;SDS011;11624;53.250;7.456;2023-05-07T05:28:32;31.92;;;18.38;;
22916;SDS011;11624;53.250;7.456;2023-05-07T05:31:01;31.77;;;18.73;;
22916;SDS011;11624;53.250;7.456;2023-05-07T05:33:33;32.03;;;17.83;;
22916;SDS011;11624;53.250;7.456;2023-05-07T05:36:04;33.22;;;18.60;;
22916;SDS011;11624;53.250;7.456;2023-05-07T05:38:34;31.35;;;18.40;;
22916;SDS011;11624;53.250;7.456;2023-05-07T05:41:03;30.45;;;18.75;;
22916;SDS011;11624;53.250;7.456;2023-05-07T05:43:31;33.45;;;18.55;;
22916;SDS011;11624;53.250;7.456;2023-05-07T05:45:59;31.17;;;18.38;;
22916;SDS011;11624;53.250;7.456;2023-05-07T05:48:28;29.63;;;17.25;;
22916;SDS011;11624;53.250;7.456;2023-05-07T05:50:59;30.38;;;17.90;;
22916;SDS011;11624;53.250;7.456;2023-05-07T05:53:27;32.28;;;17.92;;
22916;SDS011;11624;53.250;7.456;2023-05-07T05:55:57;30.70;;;18.60;;
22916;SDS011;11624;53.250;7.456;2023-05-07T05:58:25;35.42;;;18.17;;
22916;SDS011;11624;53.250;7.456;2023-05-07T06:00:58;33.25;;;18.75;;
22916;SDS011;11624;53.250;7.456;2023-05-07T06:03:29;31.25;;;17.80;;
22916;SDS011;11624;53.250;7.456;2023-05-07T06:06:01;30.02;;;17.85;;
22916;SDS011;11624;53.250;7.456;2023-05-07T06:08:30;31.00;;;17.70;;
22916;SDS011;11624;53.250;7.456;2023-05-07T06:11:00;33.22;;;18.13;;
22916;SDS011;11624;53.250;7.456;2023-05-07T06:13:31;32.22;;;17.67;;
22916;SDS011;11624;53.250;7.456;2023-05-07T06:15:59;32.08;;;18.20;;
22916;SDS011;11624;53.250;7.456;2023-05-07T06:18:28;30.55;;;17.33;;
22916;SDS011;11624;53.250;7.456;2023-05-07T06:20:57;31.67;;;16.48;;
22916;SDS011;11624;53.250;7.456;2023-05-07T06:23:29;31.92;;;18.25;;
22916;SDS011;11624;53.250;7.456;2023-05-07T06:25:59;31.55;;;18.48;;
22916;SDS011;11624;53.250;7.456;2023-05-07T06:28:33;34.38;;;18.60;;
22916;SDS011;11624;53.250;7.456;2023-05-07T06:31:11;35.58;;;18.98;;
22916;SDS011;11624;53.250;7.456;2023-05-07T06:33:42;32.67;;;18.15;;
22916;SDS011;11624;53.250;7.456;2023-05-07T06:36:12;32.85;;;18.88;;
22916;SDS011;11624;53.250;7.456;2023-05-07T06:38:42;32.92;;;17.67;;
22916;SDS011;11624;53.250;7.456;2023-05-07T06:41:11;32.15;;;18.15;;
22916;SDS011;11624;53.250;7.456;2023-05-07T06:43:39;31.25;;;17.73;;
22916;SDS011;11624;53.250;7.456;2023-05-07T06:46:26;31.23;;;16.95;;
22916;SDS011;11624;53.250;7.456;2023-05-07T06:48:54;33.47;;;18.00;;
22916;SDS011;11624;53.250;7.456;2023-05-07T06:51:24;34.25;;;18.40;;
22916;SDS011;11624;53.250;7.456;2023-05-07T06:53:54;32.83;;;19.20;;
22916;SDS011;11624;53.250;7.456;2023-05-07T06:56:23;31.10;;;18.58;;
22916;SDS011;11624;53.250;7.456;2023-05-07T06:58:52;30.27;;;17.85;;
22916;SDS011;11624;53.250;7.456;2023-05-07T07:01:20;32.70;;;18.33;;
22916;SDS011;11624;53.250;7.456;2023-05-07T07:03:49;34.22;;;17.38;;
22916;SDS011;11624;53.250;7.456;2023-05-07T07:06:19;33.25;;;18.00;;
22916;SDS011;11624;53.250;7.456;2023-05-07T07:08:47;29.05;;;16.70;;
22916;SDS011;11624;53.250;7.456;2023-05-07T07:11:16;33.03;;;18.27;;
22916;SDS011;11624;53.250;7.456;2023-05-07T07:13:46;31.33;;;18.48;;
22916;SDS011;11624;53.250;7.456;2023-05-07T07:16:14;29.95;;;16.77;;
22916;SDS011;11624;53.250;7.456;2023-05-07T07:18:44;31.23;;;18.20;;
22916;SDS011;11624;53.250;7.456;2023-05-07T07:21:12;30.23;;;18.17;;
22916;SDS011;11624;53.250;7.456;2023-05-07T07:23:41;31.10;;;17.45;;
22916;SDS011;11624;53.250;7.456;2023-05-07T07:26:09;30.38;;;16.60;;
22916;SDS011;11624;53.250;7.456;2023-05-07T07:28:42;28.05;;;17.35;;
22916;SDS011;11624;53.250;7.456;2023-05-07T07:31:14;31.08;;;17.63;;
22916;SDS011;11624;53.250;7.456;2023-05-07T07:33:43;28.95;;;18.20;;
22916;SDS011;11624;53.250;7.456;2023-05-07T07:36:11;30.88;;;16.45;;
22916;SDS011;11624;53.250;7.456;2023-05-07T07:38:40;29.10;;;17.25;;
22916;SDS011;11624;53.250;7.456;2023-05-07T07:41:08;27.85;;;15.93;;
22916;SDS011;11624;53.250;7.456;2023-05-07T07:43:36;28.48;;;16.90;;
22916;SDS011;11624;53.250;7.456;2023-05-07T07:46:05;26.25;;;15.82;;
22916;SDS011;11624;53.250;7.456;2023-05-07T07:48:35;23.73;;;14.13;;
22916;SDS011;11624;53.250;7.456;2023-05-07T07:51:03;26.83;;;15.25;;
22916;SDS011;11624;53.250;7.456;2023-05-07T07:53:32;26.10;;;15.20;;
22916;SDS011;11624;53.250;7.456;2023-05-07T07:56:00;26.20;;;14.90;;
22916;SDS011;11624;53.250;7.456;2023-05-07T07:58:33;25.65;;;15.18;;
22916;SDS011;11624;53.250;7.456;2023-05-07T08:01:02;22.85;;;13.93;;
22916;SDS011;11624;53.250;7.456;2023-05-07T08:03:31;25.10;;;14.70;;
22916;SDS011;11624;53.250;7.456;2023-05-07T08:06:02;25.88;;;14.07;;
22916;SDS011;11624;53.250;7.456;2023-05-07T08:08:34;25.95;;;14.25;;
22916;SDS011;11624;53.250;7.456;2023-05-07T08:11:02;22.65;;;13.68;;
22916;SDS011;11624;53.250;7.456;2023-05-07T08:13:32;25.20;;;13.45;;
22916;SDS011;11624;53.250;7.456;2023-05-07T08:16:01;23.67;;;13.48;;
22916;SDS011;11624;53.250;7.456;2023-05-07T08:18:30;24.40;;;13.48;;
22916;SDS011;11624;53.250;7.456;2023-05-07T08:21:00;22.13;;;12.98;;
22916;SDS011;11624;53.250;7.456;2023-05-07T08:23:31;26.10;;;13.50;;
22916;SDS011;11624;53.250;7.456;2023-05-07T08:26:00;24.10;;;13.13;;
22916;SDS011;11624;53.250;7.456;2023-05-07T08:28:29;24.70;;;13.20;;
22916;SDS011;11624;53.250;7.456;2023-05-07T08:30:57;22.67;;;12.48;;
22916;SDS011;11624;53.250;7.456;2023-05-07T08:33:32;24.80;;;12.90;;
22916;SDS011;11624;53.250;7.456;2023-05-07T08:36:00;22.58;;;12.85;;
22916;SDS011;11624;53.250;7.456;2023-05-07T08:38:30;20.73;;;12.10;;
22916;SDS011;11624;53.250;7.456;2023-05-07T08:40:58;22.63;;;12.15;;
22916;SDS011;11624;53.250;7.456;2023-05-07T08:43:28;21.05;;;11.55;;
22916;SDS011;11624;53.250;7.456;2023-05-07T08:45:59;23.75;;;12.68;;
22916;SDS011;11624;53.250;7.456;2023-05-07T08:48:32;22.52;;;12.63;;
22916;SDS011;11624;53.250;7.456;2023-05-07T08:51:11;20.23;;;12.13;;
22916;SDS011;11624;53.250;7.456;2023-05-07T08:53:41;20.92;;;12.30;;
22916;SDS011;11624;53.250;7.456;2023-05-07T08:56:14;21.23;;;13.10;;
22916;SDS011;11624;53.250;7.456;2023-05-07T08:58:42;21.38;;;12.43;;
22916;SDS011;11624;53.250;7.456;2023-05-07T09:01:13;23.85;;;13.45;;
22916;SDS011;11624;53.250;7.456;2023-05-07T09:03:46;20.77;;;12.25;;
22916;SDS011;11624;53.250;7.456;2023-05-07T09:06:15;22.17;;;13.13;;
22916;SDS011;11624;53.250;7.456;2023-05-07T09:08:46;19.85;;;11.93;;
22916;SDS011;11624;53.250;7.456;2023-05-07T09:11:19;20.92;;;12.80;;
22916;SDS011;11624;53.250;7.456;2023-05-07T09:13:53;20.92;;;12.52;;
22916;SDS011;11624;53.250;7.456;2023-05-07T09:16:23;23.33;;;12.50;;
22916;SDS011;11624;53.250;7.456;2023-05-07T09:18:54;21.05;;;12.05;;
22916;SDS011;11624;53.250;7.456;2023-05-07T09:21:22;22.63;;;12.55;;
22916;SDS011;11624;53.250;7.456;2023-05-07T09:23:54;21.15;;;12.15;;
22916;SDS011;11624;53.250;7.456;2023-05-07T09:26:31;19.80;;;10.95;;
22916;SDS011;11624;53.250;7.456;2023-05-07T09:29:01;19.25;;;11.48;;
22916;SDS011;11624;53.250;7.456;2023-05-07T09:31:29;19.90;;;11.30;;
22916;SDS011;11624;53.250;7.456;2023-05-07T09:33:58;20.05;;;12.13;;
22916;SDS011;11624;53.250;7.456;2023-05-07T09:36:31;19.60;;;11.32;;
22916;SDS011;11624;53.250;7.456;2023-05-07T09:39:01;19.52;;;10.60;;
22916;SDS011;11624;53.250;7.456;2023-05-07T09:41:29;19.38;;;11.35;;
22916;SDS011;11624;53.250;7.456;2023-05-07T09:44:05;21.70;;;12.43;;
22916;SDS011;11624;53.250;7.456;2023-05-07T09:46:41;21.33;;;11.52;;
22916;SDS011;11624;53.250;7.456;2023-05-07T09:49:20;19.42;;;11.43;;
22916;SDS011;11624;53.250;7.456;2023-05-07T09:51:53;21.33;;;12.45;;
22916;SDS011;11624;53.250;7.456;2023-05-07T09:54:26;19.40;;;11.68;;
22916;SDS011;11624;53.250;7.456;2023-05-07T09:56:57;19.35;;;10.93;;
22916;SDS011;11624;53.250;7.456;2023-05-07T09:59:30;20.05;;;11.38;;
22916;SDS011;11624;53.250;7.456;2023-05-07T10:02:03;20.90;;;11.65;;
22916;SDS011;11624;53.250;7.456;2023-05-07T10:04:39;19.98;;;11.52;;
22916;SDS011;11624;53.250;7.456;2023-05-07T10:07:08;21.25;;;11.85;;
22916;SDS011;11624;53.250;7.456;2023-05-07T10:09:38;20.23;;;12.02;;
22916;SDS011;11624;53.250;7.456;2023-05-07T10:12:16;18.48;;;11.65;;
22916;SDS011;11624;53.250;7.456;2023-05-07T10:14:45;21.02;;;13.68;;
22916;SDS011;11624;53.250;7.456;2023-05-07T10:17:16;19.40;;;12.57;;
22916;SDS011;11624;53.250;7.456;2023-05-07T10:19:45;22.08;;;14.20;;
22916;SDS011;11624;53.250;7.456;2023-05-07T10:22:16;21.50;;;14.45;;
22916;SDS011;11624;53.250;7.456;2023-05-07T10:24:48;21.85;;;14.35;;
22916;SDS011;11624;53.250;7.456;2023-05-07T10:27:20;24.90;;;17.17;;
22916;SDS011;11624;53.250;7.456;2023-05-07T10:29:55;22.90;;;15.55;;
22916;SDS011;11624;53.250;7.456;2023-05-07T10:32:49;21.33;;;14.65;;
22916;SDS011;11624;53.250;7.456;2023-05-07T10:35:30;21.83;;;14.57;;
22916;SDS011;11624;53.250;7.456;2023-05-07T10:38:03;19.10;;;12.15;;
22916;SDS011;11624;53.250;7.456;2023-05-07T10:40:36;19.92;;;12.80;;
22916;SDS011;11624;53.250;7.456;2023-05-07T10:43:06;19.00;;;12.30;;
22916;SDS011;11624;53.250;7.456;2023-05-07T10:51:46;23.35;;;13.18;;
22916;SDS011;11624;53.250;7.456;2023-05-07T10:54:40;19.15;;;12.18;;
22916;SDS011;11624;53.250;7.456;2023-05-07T11:03:19;21.42;;;14.40;;
22916;SDS011;11624;53.250;7.456;2023-05-07T11:06:09;20.58;;;14.02;;
22916;SDS011;11624;53.250;7.456;2023-05-07T11:08:59;20.95;;;14.13;;
22916;SDS011;11624;53.250;7.456;2023-05-07T11:11:45;19.55;;;13.30;;
22916;SDS011;11624;53.250;7.456;2023-05-07T11:14:45;20.60;;;13.70;;
22916;SDS011;11624;53.250;7.456;2023-05-07T11:17:21;18.77;;;12.65;;
22916;SDS011;11624;53.250;7.456;2023-05-07T11:19:57;18.90;;;11.98;;
22916;SDS011;11624;53.250;7.456;2023-05-07T11:22:51;17.98;;;12.13;;
22916;SDS011;11624;53.250;7.456;2023-05-07T11:25:21;19.88;;;13.40;;
22916;SDS011;11624;53.250;7.456;2023-05-07T11:28:06;19.75;;;13.13;;
22916;SDS011;11624;53.250;7.456;2023-05-07T11:30:43;18.38;;;12.15;;
22916;SDS011;11624;53.250;7.456;2023-05-07T11:33:16;17.67;;;12.70;;
22916;SDS011;11624;53.250;7.456;2023-05-07T11:35:48;20.00;;;12.25;;
22916;SDS011;11624;53.250;7.456;2023-05-07T11:38:18;17.48;;;11.95;;
22916;SDS011;11624;53.250;7.456;2023-05-07T11:40:49;17.88;;;11.77;;
22916;SDS011;11624;53.250;7.456;2023-05-07T11:43:18;19.38;;;13.55;;
22916;SDS011;11624;53.250;7.456;2023-05-07T11:45:48;19.38;;;11.70;;
22916;SDS011;11624;53.250;7.456;2023-05-07T11:48:16;17.40;;;12.00;;
22916;SDS011;11624;53.250;7.456;2023-05-07T11:50:50;16.83;;;11.93;;
22916;SDS011;11624;53.250;7.456;2023-05-07T11:53:19;16.80;;;11.55;;
22916;SDS011;11624;53.250;7.456;2023-05-07T11:55:47;17.00;;;11.75;;
22916;SDS011;11624;53.250;7.456;2023-05-07T11:58:20;18.45;;;11.90;;
22916;SDS011;11624;53.250;7.456;2023-05-07T12:00:51;18.15;;;13.48;;
22916;SDS011;11624;53.250;7.456;2023-05-07T12:03:20;16.30;;;11.90;;
22916;SDS011;11624;53.250;7.456;2023-05-07T12:05:48;18.08;;;12.13;;
22916;SDS011;11624;53.250;7.456;2023-05-07T12:08:16;18.25;;;12.80;;
22916;SDS011;11624;53.250;7.456;2023-05-07T12:10:47;16.73;;;12.23;;
22916;SDS011;11624;53.250;7.456;2023-05-07T12:13:16;18.67;;;12.68;;
22916;SDS011;11624;53.250;7.456;2023-05-07T12:15:44;17.55;;;12.38;;
22916;SDS011;11624;53.250;7.456;2023-05-07T12:18:14;17.15;;;12.93;;
22916;SDS011;11624;53.250;7.456;2023-05-07T12:20:42;17.42;;;12.15;;
22916;SDS011;11624;53.250;7.456;2023-05-07T12:23:11;24.33;;;21.92;;
22916;SDS011;11624;53.250;7.456;2023-05-07T12:25:40;18.27;;;12.98;;
22916;SDS011;11624;53.250;7.456;2023-05-07T12:28:21;17.98;;;13.65;;
22916;SDS011;11624;53.250;7.456;2023-05-07T12:30:53;19.58;;;16.60;;
22916;SDS011;11624;53.250;7.456;2023-05-07T12:33:27;18.33;;;14.85;;
22916;SDS011;11624;53.250;7.456;2023-05-07T12:36:00;20.77;;;13.85;;
22916;SDS011;11624;53.250;7.456;2023-05-07T12:38:37;17.80;;;13.15;;
22916;SDS011;11624;53.250;7.456;2023-05-07T12:41:14;18.80;;;14.65;;
22916;SDS011;11624;53.250;7.456;2023-05-07T12:43:56;17.60;;;12.73;;
22916;SDS011;11624;53.250;7.456;2023-05-07T12:46:30;18.73;;;12.88;;
22916;SDS011;11624;53.250;7.456;2023-05-07T12:49:06;22.33;;;13.38;;
22916;SDS011;11624;53.250;7.456;2023-05-07T12:51:36;17.73;;;12.43;;
22916;SDS011;11624;53.250;7.456;2023-05-07T12:54:07;18.13;;;12.20;;
22916;SDS011;11624;53.250;7.456;2023-05-07T12:56:37;19.13;;;12.55;;
22916;SDS011;11624;53.250;7.456;2023-05-07T12:59:08;18.00;;;12.10;;
22916;SDS011;11624;53.250;7.456;2023-05-07T13:01:41;18.65;;;11.73;;
22916;SDS011;11624;53.250;7.456;2023-05-07T13:04:21;16.48;;;10.40;;
22916;SDS011;11624;53.250;7.456;2023-05-07T13:06:55;17.48;;;9.65;;
22916;SDS011;11624;53.250;7.456;2023-05-07T13:09:26;16.38;;;8.80;;
22916;SDS011;11624;53.250;7.456;2023-05-07T13:11:59;15.35;;;9.02;;
22916;SDS011;11624;53.250;7.456;2023-05-07T13:14:29;15.60;;;9.32;;
22916;SDS011;11624;53.250;7.456;2023-05-07T13:16:58;15.82;;;9.40;;
22916;SDS011;11624;53.250;7.456;2023-05-07T13:19:31;16.33;;;8.73;;
22916;SDS011;11624;53.250;7.456;2023-05-07T13:22:04;16.60;;;9.48;;
22916;SDS011;11624;53.250;7.456;2023-05-07T13:24:42;16.45;;;9.57;;
22916;SDS011;11624;53.250;7.456;2023-05-07T13:27:17;16.15;;;9.25;;
22916;SDS011;11624;53.250;7.456;2023-05-07T13:29:50;15.85;;;8.98;;
22916;SDS011;11624;53.250;7.456;2023-05-07T13:32:19;15.50;;;8.85;;
22916;SDS011;11624;53.250;7.456;2023-05-07T13:34:55;15.38;;;8.80;;
22916;SDS011;11624;53.250;7.456;2023-05-07T13:37:24;16.27;;;9.30;;
22916;SDS011;11624;53.250;7.456;2023-05-07T13:39:56;17.00;;;8.80;;
22916;SDS011;11624;53.250;7.456;2023-05-07T13:42:28;18.98;;;8.98;;
22916;SDS011;11624;53.250;7.456;2023-05-07T13:45:01;16.48;;;9.32;;
22916;SDS011;11624;53.250;7.456;2023-05-07T13:47:38;15.88;;;8.77;;
22916;SDS011;11624;53.250;7.456;2023-05-07T13:50:17;15.05;;;8.88;;
22916;SDS011;11624;53.250;7.456;2023-05-07T13:52:49;16.58;;;9.55;;
22916;SDS011;11624;53.250;7.456;2023-05-07T13:55:21;17.42;;;10.07;;
22916;SDS011;11624;53.250;7.456;2023-05-07T13:58:02;16.75;;;9.70;;
22916;SDS011;11624;53.250;7.456;2023-05-07T14:00:39;15.25;;;8.43;;
22916;SDS011;11624;53.250;7.456;2023-05-07T14:03:15;15.63;;;8.50;;
22916;SDS011;11624;53.250;7.456;2023-05-07T14:05:49;16.98;;;9.38;;
22916;SDS011;11624;53.250;7.456;2023-05-07T14:08:21;16.75;;;8.93;;
22916;SDS011;11624;53.250;7.456;2023-05-07T14:10:52;15.45;;;8.88;;
22916;SDS011;11624;53.250;7.456;2023-05-07T14:13:24;16.23;;;9.15;;
22916;SDS011;11624;53.250;7.456;2023-05-07T14:15:54;17.50;;;9.73;;
22916;SDS011;11624;53.250;7.456;2023-05-07T14:18:25;15.52;;;8.70;;
22916;SDS011;11624;53.250;7.456;2023-05-07T14:21:00;15.63;;;8.95;;
22916;SDS011;11624;53.250;7.456;2023-05-07T14:23:30;17.48;;;9.45;;
22916;SDS011;11624;53.250;7.456;2023-05-07T14:26:02;16.15;;;9.02;;
22916;SDS011;11624;53.250;7.456;2023-05-07T14:28:32;15.45;;;8.73;;
22916;SDS011;11624;53.250;7.456;2023-05-07T14:31:02;16.10;;;8.52;;
22916;SDS011;11624;53.250;7.456;2023-05-07T14:33:35;15.52;;;8.43;;
22916;SDS011;11624;53.250;7.456;2023-05-07T14:36:09;15.75;;;9.48;;
22916;SDS011;11624;53.250;7.456;2023-05-07T14:38:38;16.25;;;9.23;;
22916;SDS011;11624;53.250;7.456;2023-05-07T14:41:10;15.90;;;8.65;;
22916;SDS011;11624;53.250;7.456;2023-05-07T14:43:44;17.83;;;8.95;;
22916;SDS011;11624;53.250;7.456;2023-05-07T14:46:18;16.85;;;9.13;;
22916;SDS011;11624;53.250;7.456;2023-05-07T14:48:48;16.77;;;9.63;;
22916;SDS011;11624;53.250;7.456;2023-05-07T14:51:19;16.83;;;9.10;;
22916;SDS011;11624;53.250;7.456;2023-05-07T14:53:52;16.00;;;9.63;;
22916;SDS011;11624;53.250;7.456;2023-05-07T14:59:17;15.50;;;8.85;;
22916;SDS011;11624;53.250;7.456;2023-05-07T15:01:47;18.05;;;9.55;;